sensor_id;sensor_type;location;lat;lon;timestamp;pressure;altitude;pressure_sealevel;temperature;humidity
43312;BME280;30041;48.300;16.352;2023-03-26T00:00:46;99160.03;;;23.20;42.18
43312;BME280;30041;48.300;16.352;2023-03-26T00:03:13;99167.03;;;23.21;42.22
43312;BME280;30041;48.300;16.352;2023-03-26T00:05:39;99161.38;;;23.23;42.11
43312;BME280;30041;48.300;16.352;2023-03-26T00:08:06;99163.00;;;23.24;42.15
43312;BME280;30041;48.300;16.352;2023-03-26T00:10:32;99163.00;;;23.24;42.09
43312;BME280;30041;48.300;16.352;2023-03-26T00:12:58;99152.19;;;23.24;41.93
43312;BME280;30041;48.300;16.352;2023-03-26T00:15:23;99154.38;;;23.27;41.94
43312;BME280;30041;48.300;16.352;2023-03-26T00:17:49;99165.19;;;23.27;42.25
43312;BME280;30041;48.300;16.352;2023-03-26T00:20:14;99164.09;;;23.28;41.83
43312;BME280;30041;48.300;16.352;2023-03-26T00:22:40;99156.00;;;23.28;41.81
43312;BME280;30041;48.300;16.352;2023-03-26T00:25:06;99158.44;;;23.30;42.09
43312;BME280;30041;48.300;16.352;2023-03-26T00:27:33;99153.84;;;23.30;41.85
43312;BME280;30041;48.300;16.352;2023-03-26T00:29:59;99167.13;;;23.32;41.89
43312;BME280;30041;48.300;16.352;2023-03-26T00:32:26;99157.09;;;23.32;41.86
43312;BME280;30041;48.300;16.352;2023-03-26T00:34:58;99161.72;;;23.32;42.03
43312;BME280;30041;48.300;16.352;2023-03-26T00:37:23;99154.16;;;23.34;41.86
43312;BME280;30041;48.300;16.352;2023-03-26T00:39:49;99159.84;;;23.37;41.88
43312;BME280;30041;48.300;16.352;2023-03-26T00:42:14;99160.13;;;23.36;41.86
43312;BME280;30041;48.300;16.352;2023-03-26T00:44:40;99150.09;;;23.36;41.64
43312;BME280;30041;48.300;16.352;2023-03-26T00:47:05;99154.44;;;23.37;41.69
43312;BME280;30041;48.300;16.352;2023-03-26T00:49:31;99150.66;;;23.38;41.65
43312;BME280;30041;48.300;16.352;2023-03-26T00:51:56;99156.31;;;23.37;41.59
43312;BME280;30041;48.300;16.352;2023-03-26T00:54:22;99154.97;;;23.39;41.90
43312;BME280;30041;48.300;16.352;2023-03-26T00:56:47;99149.00;;;23.37;41.49
43312;BME280;30041;48.300;16.352;2023-03-26T00:59:13;99152.28;;;23.39;41.53
43312;BME280;30041;48.300;16.352;2023-03-26T01:01:38;99144.16;;;23.39;41.92
43312;BME280;30041;48.300;16.352;2023-03-26T01:04:26;99150.66;;;23.38;41.72
43312;BME280;30041;48.300;16.352;2023-03-26T01:06:53;99148.25;;;23.42;41.84
43312;BME280;30041;48.300;16.352;2023-03-26T01:09:21;99150.69;;;23.44;41.76
43312;BME280;30041;48.300;16.352;2023-03-26T01:11:50;99155.28;;;23.43;41.86
43312;BME280;30041;48.300;16.352;2023-03-26T01:14:19;99152.03;;;23.41;41.56
43312;BME280;30041;48.300;16.352;2023-03-26T01:16:51;99145.28;;;23.44;41.76
43312;BME280;30041;48.300;16.352;2023-03-26T01:19:38;99135.25;;;23.44;41.60
43312;BME280;30041;48.300;16.352;2023-03-26T01:22:08;99128.25;;;23.43;41.72
43312;BME280;30041;48.300;16.352;2023-03-26T01:24:34;99130.69;;;23.45;41.53
43312;BME280;30041;48.300;16.352;2023-03-26T01:27:48;99130.94;;;23.43;41.54
43312;BME280;30041;48.300;16.352;2023-03-26T01:35:59;99117.97;;;23.45;41.74
43312;BME280;30041;48.300;16.352;2023-03-26T01:41:46;99109.31;;;23.48;41.45
43312;BME280;30041;48.300;16.352;2023-03-26T01:47:02;99123.16;;;23.52;41.56
43312;BME280;30041;48.300;16.352;2023-03-26T01:49:30;99118.00;;;23.50;41.45
43312;BME280;30041;48.300;16.352;2023-03-26T01:51:56;99114.78;;;23.53;41.31
43312;BME280;30041;48.300;16.352;2023-03-26T01:54:26;99127.47;;;23.53;41.53
43312;BME280;30041;48.300;16.352;2023-03-26T01:57:08;99117.75;;;23.52;41.37
43312;BME280;30041;48.300;16.352;2023-03-26T01:59:59;99128.81;;;23.50;41.30
43312;BME280;30041;48.300;16.352;2023-03-26T02:02:31;99127.75;;;23.51;41.57
43312;BME280;30041;48.300;16.352;2023-03-26T02:05:14;99126.09;;;23.50;41.29
43312;BME280;30041;48.300;16.352;2023-03-26T02:10:28;99125.84;;;23.52;41.63
43312;BME280;30041;48.300;16.352;2023-03-26T02:12:55;99112.06;;;23.53;41.24
43312;BME280;30041;48.300;16.352;2023-03-26T02:15:21;99108.28;;;23.54;41.39
43312;BME280;30041;48.300;16.352;2023-03-26T02:17:47;99103.97;;;23.53;41.28
43312;BME280;30041;48.300;16.352;2023-03-26T02:20:13;99103.66;;;23.55;41.34
43312;BME280;30041;48.300;16.352;2023-03-26T02:22:41;99115.31;;;23.55;41.54
43312;BME280;30041;48.300;16.352;2023-03-26T02:25:14;99124.75;;;23.53;41.54
43312;BME280;30041;48.300;16.352;2023-03-26T02:27:41;99114.50;;;23.55;41.40
43312;BME280;30041;48.300;16.352;2023-03-26T02:30:08;99120.72;;;23.55;41.40
43312;BME280;30041;48.300;16.352;2023-03-26T02:32:35;99120.72;;;23.55;41.49
43312;BME280;30041;48.300;16.352;2023-03-26T02:35:01;99120.47;;;23.57;41.06
43312;BME280;30041;48.300;16.352;2023-03-26T02:37:27;99123.16;;;23.57;41.62
43312;BME280;30041;48.300;16.352;2023-03-26T02:39:53;99126.66;;;23.57;41.51
43312;BME280;30041;48.300;16.352;2023-03-26T02:42:18;99118.84;;;23.56;41.63
43312;BME280;30041;48.300;16.352;2023-03-26T02:44:44;99129.13;;;23.59;41.21
43312;BME280;30041;48.300;16.352;2023-03-26T02:47:09;99118.56;;;23.57;41.15
43312;BME280;30041;48.300;16.352;2023-03-26T02:49:35;99110.44;;;23.57;41.47
43312;BME280;30041;48.300;16.352;2023-03-26T02:52:01;99118.31;;;23.59;41.14
43312;BME280;30041;48.300;16.352;2023-03-26T02:54:26;99123.97;;;23.57;41.57
43312;BME280;30041;48.300;16.352;2023-03-26T02:56:52;99111.00;;;23.59;41.34
43312;BME280;30041;48.300;16.352;2023-03-26T02:59:17;99104.78;;;23.59;41.52
43312;BME280;30041;48.300;16.352;2023-03-26T03:01:43;99108.84;;;23.61;41.04
43312;BME280;30041;48.300;16.352;2023-03-26T03:04:12;99103.72;;;23.60;41.11
43312;BME280;30041;48.300;16.352;2023-03-26T03:06:38;99099.13;;;23.60;41.02
43312;BME280;30041;48.300;16.352;2023-03-26T03:09:05;99108.03;;;23.61;41.32
43312;BME280;30041;48.300;16.352;2023-03-26T03:11:31;99097.75;;;23.58;41.12
43312;BME280;30041;48.300;16.352;2023-03-26T03:13:56;99086.41;;;23.61;41.35
43312;BME280;30041;48.300;16.352;2023-03-26T03:16:22;99086.66;;;23.59;41.42
43312;BME280;30041;48.300;16.352;2023-03-26T03:18:48;99092.91;;;23.60;41.31
43312;BME280;30041;48.300;16.352;2023-03-26T03:21:14;99090.44;;;23.58;41.40
43312;BME280;30041;48.300;16.352;2023-03-26T03:23:39;99089.09;;;23.56;41.53
43312;BME280;30041;48.300;16.352;2023-03-26T03:26:11;99081.78;;;23.51;41.61
43312;BME280;30041;48.300;16.352;2023-03-26T03:28:37;99070.41;;;23.54;41.61
43312;BME280;30041;48.300;16.352;2023-03-26T03:31:02;99083.63;;;23.51;41.30
43312;BME280;30041;48.300;16.352;2023-03-26T03:33:28;99074.97;;;23.49;41.48
43312;BME280;30041;48.300;16.352;2023-03-26T03:35:53;99071.75;;;23.47;41.80
43312;BME280;30041;48.300;16.352;2023-03-26T03:38:19;99076.31;;;23.46;41.79
43312;BME280;30041;48.300;16.352;2023-03-26T03:40:44;99074.97;;;23.44;41.68
43312;BME280;30041;48.300;16.352;2023-03-26T03:43:10;99074.41;;;23.41;41.79
43312;BME280;30041;48.300;16.352;2023-03-26T03:45:36;99070.91;;;23.41;41.42
43312;BME280;30041;48.300;16.352;2023-03-26T03:48:01;99066.84;;;23.38;41.50
43312;BME280;30041;48.300;16.352;2023-03-26T03:50:27;99058.16;;;23.36;41.93
43312;BME280;30041;48.300;16.352;2023-03-26T03:52:52;99064.13;;;23.38;41.61
43312;BME280;30041;48.300;16.352;2023-03-26T03:55:18;99067.38;;;23.35;41.45
43312;BME280;30041;48.300;16.352;2023-03-26T03:57:44;99071.69;;;23.36;41.46
43312;BME280;30041;48.300;16.352;2023-03-26T04:00:10;99071.94;;;23.35;41.79
43312;BME280;30041;48.300;16.352;2023-03-26T04:02:37;99081.94;;;23.34;41.68
43312;BME280;30041;48.300;16.352;2023-03-26T04:05:04;99081.41;;;23.32;41.46
43312;BME280;30041;48.300;16.352;2023-03-26T04:07:31;99077.88;;;23.32;41.55
43312;BME280;30041;48.300;16.352;2023-03-26T04:09:57;99078.94;;;23.31;41.51
43312;BME280;30041;48.300;16.352;2023-03-26T04:12:23;99087.91;;;23.31;41.64
43312;BME280;30041;48.300;16.352;2023-03-26T04:14:48;99087.91;;;23.31;41.93
43312;BME280;30041;48.300;16.352;2023-03-26T04:17:14;99087.34;;;23.29;41.76
43312;BME280;30041;48.300;16.352;2023-03-26T04:19:40;99081.13;;;23.29;41.79
43312;BME280;30041;48.300;16.352;2023-03-26T04:22:06;99079.75;;;23.26;41.50
43312;BME280;30041;48.300;16.352;2023-03-26T04:24:31;99080.28;;;23.28;41.88
43312;BME280;30041;48.300;16.352;2023-03-26T04:26:57;99076.78;;;23.28;41.83
43312;BME280;30041;48.300;16.352;2023-03-26T04:29:23;99084.34;;;23.26;41.77
43312;BME280;30041;48.300;16.352;2023-03-26T04:31:50;99079.75;;;23.26;41.84
43312;BME280;30041;48.300;16.352;2023-03-26T04:34:21;99067.88;;;23.27;41.56
43312;BME280;30041;48.300;16.352;2023-03-26T04:36:47;99080.84;;;23.25;41.50
43312;BME280;30041;48.300;16.352;2023-03-26T04:39:13;99074.34;;;23.26;41.74
43312;BME280;30041;48.300;16.352;2023-03-26T04:41:38;99063.53;;;23.26;41.54
43312;BME280;30041;48.300;16.352;2023-03-26T04:44:04;99073.28;;;23.27;41.74
43312;BME280;30041;48.300;16.352;2023-03-26T04:46:30;99065.16;;;23.27;41.62
43312;BME280;30041;48.300;16.352;2023-03-26T04:48:56;99060.25;;;23.24;41.71
43312;BME280;30041;48.300;16.352;2023-03-26T04:51:25;99058.94;;;23.27;41.67
43312;BME280;30041;48.300;16.352;2023-03-26T04:53:53;99057.31;;;23.26;41.79
43312;BME280;30041;48.300;16.352;2023-03-26T04:56:39;99066.75;;;23.23;41.49
43312;BME280;30041;48.300;16.352;2023-03-26T04:59:07;99070.00;;;23.20;41.78
43312;BME280;30041;48.300;16.352;2023-03-26T05:01:34;99070.28;;;23.24;41.78
43312;BME280;30041;48.300;16.352;2023-03-26T05:04:00;99065.41;;;23.26;41.58
43312;BME280;30041;48.300;16.352;2023-03-26T05:06:26;99071.06;;;23.24;41.71
43312;BME280;30041;48.300;16.352;2023-03-26T05:08:53;99071.91;;;23.25;41.66
43312;BME280;30041;48.300;16.352;2023-03-26T05:11:18;99068.91;;;23.21;41.97
43312;BME280;30041;48.300;16.352;2023-03-26T05:13:44;99065.16;;;23.22;41.51
43312;BME280;30041;48.300;16.352;2023-03-26T05:16:10;99067.31;;;23.20;41.59
43312;BME280;30041;48.300;16.352;2023-03-26T05:18:36;99068.91;;;23.21;41.81
43312;BME280;30041;48.300;16.352;2023-03-26T05:21:01;99068.34;;;23.19;41.54
43312;BME280;30041;48.300;16.352;2023-03-26T05:23:27;99064.03;;;23.18;41.96
43312;BME280;30041;48.300;16.352;2023-03-26T05:25:53;99069.16;;;23.19;41.54
43312;BME280;30041;48.300;16.352;2023-03-26T05:28:18;99070.00;;;23.20;41.53
43312;BME280;30041;48.300;16.352;2023-03-26T05:30:44;99074.56;;;23.19;41.55
43312;BME280;30041;48.300;16.352;2023-03-26T05:33:09;99073.75;;;23.19;41.89
43312;BME280;30041;48.300;16.352;2023-03-26T05:35:35;99074.84;;;23.18;41.87
43312;BME280;30041;48.300;16.352;2023-03-26T05:38:00;99079.41;;;23.17;41.87
43312;BME280;30041;48.300;16.352;2023-03-26T05:40:26;99081.31;;;23.17;41.77
43312;BME280;30041;48.300;16.352;2023-03-26T05:42:51;99085.66;;;23.18;41.95
43312;BME280;30041;48.300;16.352;2023-03-26T05:45:17;99084.31;;;23.15;41.81
43312;BME280;30041;48.300;16.352;2023-03-26T05:47:43;99089.44;;;23.17;41.61
43312;BME280;30041;48.300;16.352;2023-03-26T05:50:09;99104.59;;;23.18;41.65
43312;BME280;30041;48.300;16.352;2023-03-26T05:52:35;99093.22;;;23.16;41.73
43312;BME280;30041;48.300;16.352;2023-03-26T05:55:01;99096.72;;;23.16;41.64
43312;BME280;30041;48.300;16.352;2023-03-26T05:57:30;99093.47;;;23.14;41.85
43312;BME280;30041;48.300;16.352;2023-03-26T05:59:55;99100.53;;;23.15;41.68
43312;BME280;30041;48.300;16.352;2023-03-26T06:02:21;99091.56;;;23.15;41.69
43312;BME280;30041;48.300;16.352;2023-03-26T06:04:47;99101.59;;;23.14;41.46
43312;BME280;30041;48.300;16.352;2023-03-26T06:07:12;99114.56;;;23.17;41.61
43312;BME280;30041;48.300;16.352;2023-03-26T06:09:39;99105.94;;;23.15;41.91
43312;BME280;30041;48.300;16.352;2023-03-26T06:12:06;99114.28;;;23.14;41.87
43312;BME280;30041;48.300;16.352;2023-03-26T06:14:32;99117.56;;;23.16;41.71
43312;BME280;30041;48.300;16.352;2023-03-26T06:16:57;99124.84;;;23.15;41.68
43312;BME280;30041;48.300;16.352;2023-03-26T06:19:23;99132.97;;;23.15;41.80
43312;BME280;30041;48.300;16.352;2023-03-26T06:21:49;99140.50;;;23.13;41.71
43312;BME280;30041;48.300;16.352;2023-03-26T06:24:14;99146.47;;;23.15;41.75
43312;BME280;30041;48.300;16.352;2023-03-26T06:26:40;99147.28;;;23.16;41.91
43312;BME280;30041;48.300;16.352;2023-03-26T06:29:06;99150.25;;;23.14;41.89
43312;BME280;30041;48.300;16.352;2023-03-26T06:31:31;99152.13;;;23.14;42.01
43312;BME280;30041;48.300;16.352;2023-03-26T06:33:57;99147.53;;;23.14;41.80
43312;BME280;30041;48.300;16.352;2023-03-26T06:36:22;99145.91;;;23.13;41.77
43312;BME280;30041;48.300;16.352;2023-03-26T06:38:48;99151.31;;;23.13;41.83
43312;BME280;30041;48.300;16.352;2023-03-26T06:41:13;99157.28;;;23.15;41.93
43312;BME280;30041;48.300;16.352;2023-03-26T06:43:39;99152.94;;;23.14;41.82
43312;BME280;30041;48.300;16.352;2023-03-26T06:46:04;99158.34;;;23.14;41.67
43312;BME280;30041;48.300;16.352;2023-03-26T06:48:30;99157.53;;;23.14;41.53
43312;BME280;30041;48.300;16.352;2023-03-26T06:50:56;99157.53;;;23.14;42.06
43312;BME280;30041;48.300;16.352;2023-03-26T06:53:22;99160.50;;;23.12;41.90
43312;BME280;30041;48.300;16.352;2023-03-26T06:55:47;99148.63;;;23.13;41.77
43312;BME280;30041;48.300;16.352;2023-03-26T06:58:13;99156.72;;;23.13;42.03
43312;BME280;30041;48.300;16.352;2023-03-26T07:00:39;99166.72;;;23.13;41.76
43312;BME280;30041;48.300;16.352;2023-03-26T07:03:05;99159.44;;;23.13;41.69
43312;BME280;30041;48.300;16.352;2023-03-26T07:05:31;99160.25;;;23.14;41.71
43312;BME280;30041;48.300;16.352;2023-03-26T07:07:56;99155.66;;;23.14;41.73
43312;BME280;30041;48.300;16.352;2023-03-26T07:10:22;99156.72;;;23.13;41.83
43312;BME280;30041;48.300;16.352;2023-03-26T07:12:48;99154.03;;;23.13;42.02
43312;BME280;30041;48.300;16.352;2023-03-26T07:15:13;99151.31;;;23.13;41.90
43312;BME280;30041;48.300;16.352;2023-03-26T07:17:39;99148.06;;;23.11;41.85
43312;BME280;30041;48.300;16.352;2023-03-26T07:20:06;99154.28;;;23.12;41.70
43312;BME280;30041;48.300;16.352;2023-03-26T07:22:32;99153.47;;;23.11;42.00
43312;BME280;30041;48.300;16.352;2023-03-26T07:24:58;99144.28;;;23.12;41.85
43312;BME280;30041;48.300;16.352;2023-03-26T07:27:50;99139.16;;;23.11;41.72
43312;BME280;30041;48.300;16.352;2023-03-26T07:33:21;99140.22;;;23.10;41.86
43312;BME280;30041;48.300;16.352;2023-03-26T07:36:12;99126.94;;;23.08;41.97
43312;BME280;30041;48.300;16.352;2023-03-26T07:44:08;99131.03;;;22.78;44.19
43312;BME280;30041;48.300;16.352;2023-03-26T07:46:38;99131.28;;;22.77;44.66
43312;BME280;30041;48.300;16.352;2023-03-26T07:49:04;99123.16;;;22.72;44.74
43312;BME280;30041;48.300;16.352;2023-03-26T07:51:30;99127.44;;;22.68;44.80
43312;BME280;30041;48.300;16.352;2023-03-26T07:53:56;99119.41;;;22.73;44.66
43312;BME280;30041;48.300;16.352;2023-03-26T07:59:47;99115.22;;;22.60;44.97
43312;BME280;30041;48.300;16.352;2023-03-26T08:02:30;99114.22;;;22.66;44.63
43312;BME280;30041;48.300;16.352;2023-03-26T08:07:56;99121.19;;;22.62;43.20
43312;BME280;30041;48.300;16.352;2023-03-26T08:10:40;99129.28;;;22.62;43.83
43312;BME280;30041;48.300;16.352;2023-03-26T08:13:27;99123.91;;;22.62;44.20
43312;BME280;30041;48.300;16.352;2023-03-26T08:16:21;99117.16;;;22.65;44.61
43312;BME280;30041;48.300;16.352;2023-03-26T08:21:33;99117.16;;;22.65;44.79
43312;BME280;30041;48.300;16.352;2023-03-26T08:24:21;99108.75;;;22.61;45.14
43312;BME280;30041;48.300;16.352;2023-03-26T08:27:01;99108.50;;;22.63;45.25
43312;BME280;30041;48.300;16.352;2023-03-26T08:29:45;99108.50;;;22.63;45.34
43312;BME280;30041;48.300;16.352;2023-03-26T08:32:17;99109.31;;;22.63;45.25
43312;BME280;30041;48.300;16.352;2023-03-26T08:34:44;99103.91;;;22.63;45.21
43312;BME280;30041;48.300;16.352;2023-03-26T08:37:10;99115.78;;;22.62;45.31
43312;BME280;30041;48.300;16.352;2023-03-26T08:39:36;99105.78;;;22.63;45.58
43312;BME280;30041;48.300;16.352;2023-03-26T08:44:50;99098.75;;;22.62;45.59
43312;BME280;30041;48.300;16.352;2023-03-26T08:47:38;99097.69;;;22.63;45.45
43312;BME280;30041;48.300;16.352;2023-03-26T09:01:34;99069.88;;;22.62;45.59
43312;BME280;30041;48.300;16.352;2023-03-26T09:04:22;99068.50;;;22.59;45.79
43312;BME280;30041;48.300;16.352;2023-03-26T09:09:45;99054.69;;;22.56;45.93
43312;BME280;30041;48.300;16.352;2023-03-26T09:23:24;99019.25;;;22.47;45.81
43312;BME280;30041;48.300;16.352;2023-03-26T09:31:59;99015.06;;;22.29;44.96
43312;BME280;30041;48.300;16.352;2023-03-26T09:34:39;99009.91;;;22.28;45.61
43312;BME280;30041;48.300;16.352;2023-03-26T09:37:46;99011.00;;;22.27;45.74
43312;BME280;30041;48.300;16.352;2023-03-26T09:40:17;99001.88;;;22.33;44.26
43312;BME280;30041;48.300;16.352;2023-03-26T09:42:45;99008.31;;;22.27;45.29
43312;BME280;30041;48.300;16.352;2023-03-26T09:45:20;99008.81;;;22.24;45.55
43312;BME280;30041;48.300;16.352;2023-03-26T09:53:02;98987.13;;;22.13;46.10
43312;BME280;30041;48.300;16.352;2023-03-26T09:55:51;98982.78;;;22.12;46.04
43312;BME280;30041;48.300;16.352;2023-03-26T10:03:47;98963.59;;;22.09;46.22
43312;BME280;30041;48.300;16.352;2023-03-26T10:09:20;98950.59;;;22.06;46.31
43312;BME280;30041;48.300;16.352;2023-03-26T10:11:57;98939.56;;;22.07;46.34
43312;BME280;30041;48.300;16.352;2023-03-26T10:20:32;98918.75;;;22.03;46.57
43312;BME280;30041;48.300;16.352;2023-03-26T10:26:17;98899.63;;;22.04;46.36
43312;BME280;30041;48.300;16.352;2023-03-26T10:29:27;98887.47;;;22.02;46.54
43312;BME280;30041;48.300;16.352;2023-03-26T10:40:38;98873.19;;;22.06;46.28
43312;BME280;30041;48.300;16.352;2023-03-26T10:46:07;98857.78;;;22.02;46.53
43312;BME280;30041;48.300;16.352;2023-03-26T10:51:44;98843.19;;;21.97;46.62
43312;BME280;30041;48.300;16.352;2023-03-26T10:54:34;98835.66;;;22.00;46.42
43312;BME280;30041;48.300;16.352;2023-03-26T10:57:17;98829.72;;;22.03;46.49
43312;BME280;30041;48.300;16.352;2023-03-26T10:59:44;98829.47;;;22.04;46.52
43312;BME280;30041;48.300;16.352;2023-03-26T11:02:28;98821.06;;;22.01;46.64
43312;BME280;30041;48.300;16.352;2023-03-26T11:05:16;98824.84;;;22.00;46.34
43312;BME280;30041;48.300;16.352;2023-03-26T11:08:03;98815.66;;;22.01;46.41
43312;BME280;30041;48.300;16.352;2023-03-26T11:13:24;98793.84;;;22.02;46.43
43312;BME280;30041;48.300;16.352;2023-03-26T11:16:03;98791.38;;;22.01;46.55
43312;BME280;30041;48.300;16.352;2023-03-26T11:18:46;98784.38;;;22.00;46.62
43312;BME280;30041;48.300;16.352;2023-03-26T11:35:28;98755.97;;;21.87;46.40
43312;BME280;30041;48.300;16.352;2023-03-26T11:37:56;98758.69;;;21.92;46.29
43312;BME280;30041;48.300;16.352;2023-03-26T11:40:30;98751.94;;;21.89;46.25
43312;BME280;30041;48.300;16.352;2023-03-26T11:43:07;98751.13;;;21.89;46.18
43312;BME280;30041;48.300;16.352;2023-03-26T11:45:36;98738.44;;;21.89;46.29
43312;BME280;30041;48.300;16.352;2023-03-26T11:48:25;98737.09;;;21.87;46.22
43312;BME280;30041;48.300;16.352;2023-03-26T11:51:07;98725.78;;;21.90;46.12
43312;BME280;30041;48.300;16.352;2023-03-26T11:53:34;98725.22;;;21.88;46.06
43312;BME280;30041;48.300;16.352;2023-03-26T11:56:10;98714.66;;;21.81;46.21
43312;BME280;30041;48.300;16.352;2023-03-26T11:58:45;98716.88;;;21.89;46.23
43312;BME280;30041;48.300;16.352;2023-03-26T12:01:28;98706.84;;;21.80;46.10
43312;BME280;30041;48.300;16.352;2023-03-26T12:04:14;98702.53;;;21.79;46.25
43312;BME280;30041;48.300;16.352;2023-03-26T12:06:56;98695.25;;;21.79;46.09
43312;BME280;30041;48.300;16.352;2023-03-26T12:09:22;98684.47;;;21.79;46.13
43312;BME280;30041;48.300;16.352;2023-03-26T12:11:52;98687.16;;;21.79;46.16
43312;BME280;30041;48.300;16.352;2023-03-26T12:14:24;98684.97;;;21.76;46.00
43312;BME280;30041;48.300;16.352;2023-03-26T12:17:31;98677.25;;;21.95;45.40
43312;BME280;30041;48.300;16.352;2023-03-26T12:19:57;98687.19;;;21.84;46.01
43312;BME280;30041;48.300;16.352;2023-03-26T12:22:31;98683.94;;;21.77;45.97
43312;BME280;30041;48.300;16.352;2023-03-26T12:25:18;98675.53;;;21.73;46.09
43312;BME280;30041;48.300;16.352;2023-03-26T12:27:48;98660.97;;;21.74;46.11
43312;BME280;30041;48.300;16.352;2023-03-26T12:30:21;98664.75;;;21.73;46.19
43312;BME280;30041;48.300;16.352;2023-03-26T12:32:48;98653.41;;;21.76;45.91
43312;BME280;30041;48.300;16.352;2023-03-26T12:35:17;98652.91;;;21.80;45.87
43312;BME280;30041;48.300;16.352;2023-03-26T12:37:43;98642.38;;;21.78;45.61
43312;BME280;30041;48.300;16.352;2023-03-26T12:40:30;98641.31;;;21.79;46.29
43312;BME280;30041;48.300;16.352;2023-03-26T12:43:00;98640.00;;;21.87;45.96
43312;BME280;30041;48.300;16.352;2023-03-26T12:45:36;98638.88;;;21.77;46.00
43312;BME280;30041;48.300;16.352;2023-03-26T12:48:02;98635.56;;;21.65;46.38
43312;BME280;30041;48.300;16.352;2023-03-26T12:58:30;98611.06;;;21.72;46.37
43312;BME280;30041;48.300;16.352;2023-03-26T13:06:36;98622.22;;;22.01;45.43
43312;BME280;30041;48.300;16.352;2023-03-26T13:12:17;98607.38;;;21.98;45.56
43312;BME280;30041;48.300;16.352;2023-03-26T13:20:15;98605.59;;;22.40;44.36
43312;BME280;30041;48.300;16.352;2023-03-26T13:33:54;98585.09;;;22.44;43.97
43312;BME280;30041;48.300;16.352;2023-03-26T13:36:36;98582.94;;;22.46;44.13
43312;BME280;30041;48.300;16.352;2023-03-26T13:42:08;98553.25;;;22.46;44.34
43312;BME280;30041;48.300;16.352;2023-03-26T13:44:52;98556.19;;;22.50;44.33
43312;BME280;30041;48.300;16.352;2023-03-26T13:47:26;98542.69;;;22.55;43.94
43312;BME280;30041;48.300;16.352;2023-03-26T13:50:04;98545.94;;;22.26;45.34
43312;BME280;30041;48.300;16.352;2023-03-26T13:52:42;98536.19;;;22.15;45.62
43312;BME280;30041;48.300;16.352;2023-03-26T13:55:25;98526.22;;;22.10;45.59
43312;BME280;30041;48.300;16.352;2023-03-26T13:58:29;98515.66;;;22.14;45.69
43312;BME280;30041;48.300;16.352;2023-03-26T14:00:57;98514.88;;;22.13;45.50
43312;BME280;30041;48.300;16.352;2023-03-26T14:06:29;98500.03;;;22.11;45.80
43312;BME280;30041;48.300;16.352;2023-03-26T14:09:09;98476.31;;;22.23;45.76
43312;BME280;30041;48.300;16.352;2023-03-26T14:11:51;98470.63;;;22.25;45.50
43312;BME280;30041;48.300;16.352;2023-03-26T14:15:35;98459.81;;;22.20;45.70
43312;BME280;30041;48.300;16.352;2023-03-26T14:17:45;98459.28;;;22.17;45.65
43312;BME280;30041;48.300;16.352;2023-03-26T14:28:47;98447.69;;;22.17;45.72
43312;BME280;30041;48.300;16.352;2023-03-26T14:31:50;98445.50;;;22.19;45.60
43312;BME280;30041;48.300;16.352;2023-03-26T14:37:31;98446.34;;;22.20;45.64
43312;BME280;30041;48.300;16.352;2023-03-26T14:40:30;98435.28;;;22.11;45.88
43312;BME280;30041;48.300;16.352;2023-03-26T14:53:45;98417.75;;;22.08;44.60
43312;BME280;30041;48.300;16.352;2023-03-26T15:13:17;98416.13;;;21.97;45.59
43312;BME280;30041;48.300;16.352;2023-03-26T15:29:44;98410.19;;;21.95;45.87
43312;BME280;30041;48.300;16.352;2023-03-26T15:32:44;98413.41;;;21.92;45.74
43312;BME280;30041;48.300;16.352;2023-03-26T15:35:49;98426.91;;;21.92;45.53
43312;BME280;30041;48.300;16.352;2023-03-26T15:41:16;98422.84;;;21.74;44.94
43312;BME280;30041;48.300;16.352;2023-03-26T15:46:49;98400.72;;;21.92;44.97
43312;BME280;30041;48.300;16.352;2023-03-26T15:49:36;98410.47;;;21.88;44.16
43312;BME280;30041;48.300;16.352;2023-03-26T15:52:57;98422.31;;;21.82;45.20
43312;BME280;30041;48.300;16.352;2023-03-26T15:55:00;98426.38;;;21.85;45.12
43312;BME280;30041;48.300;16.352;2023-03-26T15:57:36;98424.22;;;21.82;45.19
43312;BME280;30041;48.300;16.352;2023-03-26T16:03:18;98431.47;;;21.76;45.36
43312;BME280;30041;48.300;16.352;2023-03-26T16:11:13;98437.69;;;22.02;44.79
43312;BME280;30041;48.300;16.352;2023-03-26T16:13:42;98437.13;;;21.90;45.36
43312;BME280;30041;48.300;16.352;2023-03-26T16:18:40;98455.47;;;21.88;45.47
43312;BME280;30041;48.300;16.352;2023-03-26T16:24:16;98469.78;;;21.78;45.66
43312;BME280;30041;48.300;16.352;2023-03-26T16:29:23;98457.38;;;21.82;45.68
43312;BME280;30041;48.300;16.352;2023-03-26T16:32:15;98454.69;;;21.82;45.93
43312;BME280;30041;48.300;16.352;2023-03-26T16:34:56;98449.28;;;21.87;45.75
43312;BME280;30041;48.300;16.352;2023-03-26T16:50:56;98441.19;;;21.77;45.88
43312;BME280;30041;48.300;16.352;2023-03-26T16:53:22;98444.69;;;21.77;46.04
43312;BME280;30041;48.300;16.352;2023-03-26T16:56:00;98439.81;;;21.74;46.08
43312;BME280;30041;48.300;16.352;2023-03-26T17:01:23;98446.84;;;21.75;46.11
43312;BME280;30041;48.300;16.352;2023-03-26T17:12:00;98456.47;;;21.41;41.89
43312;BME280;30041;48.300;16.352;2023-03-26T17:14:43;98457.56;;;21.45;44.53
43312;BME280;30041;48.300;16.352;2023-03-26T17:20:04;98464.63;;;21.66;45.00
43312;BME280;30041;48.300;16.352;2023-03-26T17:22:55;98463.03;;;21.75;45.03
43312;BME280;30041;48.300;16.352;2023-03-26T17:25:29;98464.13;;;21.80;44.93
43312;BME280;30041;48.300;16.352;2023-03-26T17:31:10;98473.31;;;21.84;45.24
43312;BME280;30041;48.300;16.352;2023-03-26T17:33:39;98455.47;;;21.88;45.19
43312;BME280;30041;48.300;16.352;2023-03-26T17:41:02;98474.66;;;22.02;45.15
43312;BME280;30041;48.300;16.352;2023-03-26T17:43:50;98461.69;;;21.98;45.41